Time;durP1;ratioP1;P1;durP2;ratioP2;P2;SDS_P1;SDS_P2;PMS_P1;PMS_P2;Temp;Humidity;BMP_temperature;BMP_pressure;BME280_temperature;BME280_humidity;BME280_pressure;Samples;Min_cycle;Max_cycle;Signal;HPM_P1;HPM_P2
2023/12/15 00:00:09;;;;;;;31.60;14.60;;;2.80;99.90;;;;;;5004296;28;20042;-86
2023/12/15 00:02:57;;;;;;;28.70;13.93;;;2.90;99.90;;;;;;4986401;28;20038;-88
2023/12/15 00:05:44;;;;;;;28.85;13.55;;;2.90;99.90;;;;;;4995469;28;20142;-86
2023/12/15 00:08:31;;;;;;;25.10;13.65;;;2.80;99.90;;;;;;5004871;28;20477;-87
2023/12/15 00:11:21;;;;;;;32.42;14.20;;;2.80;99.90;;;;;;4995338;28;20045;-86
2023/12/15 00:14:08;;;;;;;29.63;14.20;;;2.70;99.90;;;;;;4991210;28;20069;-87
2023/12/15 00:16:56;;;;;;;27.67;12.55;;;2.70;99.90;;;;;;5007128;28;20474;-86
2023/12/15 00:19:44;;;;;;;23.08;10.60;;;2.70;99.90;;;;;;5003550;28;20351;-87
2023/12/15 00:22:33;;;;;;;19.23;9.93;;;2.70;99.90;;;;;;4991725;28;20054;-85
2023/12/15 00:25:20;;;;;;;18.52;9.18;;;2.70;99.90;;;;;;4997412;28;20049;-86
2023/12/15 00:28:12;;;;;;;15.95;9.00;;;2.70;99.90;;;;;;5004017;28;20054;-88
2023/12/15 00:31:08;;;;;;;17.98;9.55;;;2.70;99.90;;;;;;4993614;28;20123;-87
2023/12/15 00:34:05;;;;;;;23.75;10.57;;;2.70;99.90;;;;;;4999390;28;20055;-87
2023/12/15 00:36:52;;;;;;;20.90;10.85;;;2.60;99.90;;;;;;5015819;28;20037;-84
2023/12/15 00:39:42;;;;;;;23.45;10.68;;;2.70;99.90;;;;;;5001143;28;20049;-86
2023/12/15 00:42:29;;;;;;;23.20;10.85;;;2.60;99.90;;;;;;4998161;28;20054;-88
2023/12/15 00:45:16;;;;;;;22.80;10.65;;;2.70;99.90;;;;;;5012927;28;20437;-81
2023/12/15 00:48:04;;;;;;;19.75;9.80;;;2.70;99.90;;;;;;4995119;28;20085;-88
2023/12/15 00:50:53;;;;;;;20.58;9.88;;;2.70;99.90;;;;;;5004539;28;20149;-88
2023/12/15 00:53:41;;;;;;;25.88;11.63;;;2.70;99.90;;;;;;5007018;28;20125;-87
2023/12/15 00:56:30;;;;;;;18.50;10.38;;;2.70;99.90;;;;;;5009906;28;20129;-87
2023/12/15 00:59:17;;;;;;;19.67;10.13;;;2.70;99.90;;;;;;4991249;28;20050;-87
2023/12/15 01:02:05;;;;;;;24.50;10.82;;;2.70;99.90;;;;;;4991104;28;20046;-86
2023/12/15 01:04:52;;;;;;;19.52;9.63;;;2.70;99.90;;;;;;5004743;28;20050;-86
2023/12/15 01:07:40;;;;;;;18.42;9.63;;;2.70;99.90;;;;;;5005050;28;20042;-88
2023/12/15 01:10:27;;;;;;;19.75;9.60;;;2.70;99.90;;;;;;4988500;28;20068;-86
2023/12/15 01:13:15;;;;;;;17.17;10.48;;;2.70;99.90;;;;;;4994829;28;20060;-88
2023/12/15 01:16:05;;;;;;;21.27;11.25;;;2.70;99.90;;;;;;5003764;28;20042;-85
2023/12/15 01:18:54;;;;;;;23.40;11.55;;;2.70;99.90;;;;;;5005450;28;20042;-83
2023/12/15 01:21:44;;;;;;;24.02;12.57;;;2.70;99.90;;;;;;5018857;28;20559;-86
2023/12/15 01:24:31;;;;;;;21.67;11.73;;;2.70;99.90;;;;;;5014994;28;20042;-87
2023/12/15 01:27:19;;;;;;;21.65;12.38;;;2.70;99.90;;;;;;4985364;28;20078;-87
2023/12/15 01:30:07;;;;;;;22.02;12.45;;;2.70;99.90;;;;;;4997142;28;20061;-84
2023/12/15 01:32:54;;;;;;;28.50;12.20;;;2.80;99.90;;;;;;5022966;28;20159;-86
2023/12/15 01:35:41;;;;;;;23.50;12.20;;;2.80;99.90;;;;;;5010538;28;20120;-87
2023/12/15 01:38:28;;;;;;;24.60;12.27;;;2.70;99.90;;;;;;5010108;28;20327;-87
2023/12/15 01:41:18;;;;;;;24.05;10.98;;;2.70;99.90;;;;;;5008342;28;20135;-86
2023/12/15 01:44:08;;;;;;;20.73;10.52;;;2.70;99.90;;;;;;5012348;28;20416;-86
2023/12/15 01:46:55;;;;;;;19.40;9.73;;;2.70;99.90;;;;;;5004613;28;20096;-86
2023/12/15 01:49:45;;;;;;;21.10;9.52;;;2.60;99.90;;;;;;5002331;28;20054;-87
2023/12/15 01:52:34;;;;;;;20.27;9.82;;;2.70;99.90;;;;;;4991649;28;20049;-87
2023/12/15 01:55:26;;;;;;;16.50;9.48;;;2.60;99.90;;;;;;5010104;28;20820;-87
2023/12/15 01:58:13;;;;;;;20.70;11.85;;;2.70;99.90;;;;;;5003567;28;20065;-88
2023/12/15 02:01:01;;;;;;;21.98;11.50;;;2.70;99.90;;;;;;4984484;28;20052;-87
2023/12/15 02:03:53;;;;;;;21.63;12.18;;;2.60;99.90;;;;;;4990542;28;20366;-86
2023/12/15 02:06:40;;;;;;;22.63;12.32;;;2.60;99.90;;;;;;5010546;28;20196;-88
2023/12/15 02:09:32;;;;;;;24.38;11.95;;;2.60;99.90;;;;;;4994319;28;20050;-86
2023/12/15 02:12:19;;;;;;;25.20;12.65;;;2.60;99.90;;;;;;5005130;28;20057;-86
2023/12/15 02:15:09;;;;;;;24.85;12.73;;;2.60;99.90;;;;;;4990634;28;20390;-86
2023/12/15 02:17:58;;;;;;;26.00;12.88;;;2.50;99.90;;;;;;4997482;28;20073;-85
2023/12/15 02:20:45;;;;;;;22.10;12.63;;;2.50;99.90;;;;;;5003551;28;20045;-87
2023/12/15 02:23:33;;;;;;;25.42;12.60;;;2.50;99.90;;;;;;5006025;28;20450;-87
2023/12/15 02:26:20;;;;;;;23.02;11.60;;;2.50;99.90;;;;;;5001583;28;20058;-86
2023/12/15 02:29:10;;;;;;;26.17;13.70;;;2.50;99.90;;;;;;4990219;28;20048;-86
2023/12/15 02:31:59;;;;;;;29.00;15.27;;;2.50;99.90;;;;;;5004403;28;20050;-84
2023/12/15 02:34:47;;;;;;;26.77;14.40;;;2.50;99.90;;;;;;4998258;28;20127;-87
2023/12/15 02:37:36;;;;;;;28.67;15.05;;;2.50;99.90;;;;;;5003552;28;20046;-86
2023/12/15 02:40:24;;;;;;;29.40;14.13;;;2.50;99.90;;;;;;5013169;28;20046;-87
2023/12/15 02:43:13;;;;;;;30.35;15.88;;;2.60;99.90;;;;;;5005542;28;20042;-86
2023/12/15 02:46:00;;;;;;;40.45;17.23;;;2.60;99.90;;;;;;4993320;28;20431;-83
2023/12/15 02:48:52;;;;;;;36.15;16.33;;;2.60;99.90;;;;;;5015661;28;20064;-84
2023/12/15 02:51:42;;;;;;;33.67;16.13;;;2.60;99.90;;;;;;5008631;28;20048;-86
2023/12/15 02:54:29;;;;;;;38.15;17.35;;;2.60;99.90;;;;;;5021471;28;20069;-85
2023/12/15 02:57:19;;;;;;;38.20;17.42;;;2.60;99.90;;;;;;5014415;28;20045;-81
2023/12/15 03:00:09;;;;;;;40.60;17.35;;;2.50;99.90;;;;;;5006469;28;20042;-85
2023/12/15 03:02:57;;;;;;;37.47;18.77;;;2.60;99.90;;;;;;4999581;28;20050;-84
2023/12/15 03:05:44;;;;;;;39.88;18.67;;;2.60;99.90;;;;;;5007500;28;20034;-87
2023/12/15 03:08:34;;;;;;;40.20;20.10;;;2.60;99.90;;;;;;5025362;28;20050;-86
2023/12/15 03:11:22;;;;;;;42.03;19.63;;;2.70;99.90;;;;;;5009130;28;20057;-86
2023/12/15 03:14:11;;;;;;;39.10;19.83;;;2.70;99.90;;;;;;5005497;28;20375;-86
2023/12/15 03:16:59;;;;;;;43.80;20.90;;;2.70;99.90;;;;;;4997775;28;20073;-86
2023/12/15 03:19:51;;;;;;;40.88;19.58;;;2.70;99.90;;;;;;4997565;28;20049;-86
2023/12/15 03:22:41;;;;;;;40.38;19.00;;;2.70;99.90;;;;;;4997496;28;20046;-85
2023/12/15 03:25:28;;;;;;;39.28;19.02;;;2.80;99.90;;;;;;5007108;28;20072;-86
2023/12/15 03:28:16;;;;;;;42.03;18.83;;;2.70;99.90;;;;;;4997546;28;20513;-87
2023/12/15 03:31:07;;;;;;;41.95;19.13;;;2.70;99.90;;;;;;5005449;28;20058;-81
2023/12/15 03:33:56;;;;;;;43.88;20.25;;;2.70;99.90;;;;;;4998020;28;20447;-87
2023/12/15 03:36:46;;;;;;;41.92;20.65;;;2.70;99.90;;;;;;4997474;28;20046;-87
2023/12/15 03:39:36;;;;;;;39.92;18.98;;;2.70;99.90;;;;;;5007996;28;20053;-83
2023/12/15 03:42:23;;;;;;;38.55;18.20;;;2.70;99.90;;;;;;5020662;28;20038;-86
2023/12/15 03:45:10;;;;;;;38.33;18.20;;;2.70;99.90;;;;;;5003860;28;20057;-87
2023/12/15 03:47:58;;;;;;;33.47;17.77;;;2.70;99.90;;;;;;5027011;28;20069;-83
2023/12/15 03:50:46;;;;;;;37.70;18.42;;;2.60;99.90;;;;;;5007777;28;20041;-84
2023/12/15 03:53:36;;;;;;;38.28;18.15;;;2.70;99.90;;;;;;5006025;28;20045;-82
2023/12/15 03:56:24;;;;;;;34.88;17.67;;;2.70;99.90;;;;;;5011505;28;20045;-83
2023/12/15 03:59:12;;;;;;;31.08;16.70;;;2.60;99.90;;;;;;5007036;28;20054;-81
2023/12/15 04:01:59;;;;;;;35.10;15.98;;;2.60;99.90;;;;;;5003266;28;20040;-82
2023/12/15 04:04:46;;;;;;;32.90;17.35;;;2.70;99.90;;;;;;5012459;28;20050;-82
2023/12/15 04:07:34;;;;;;;28.85;15.10;;;2.70;99.90;;;;;;5009473;28;20052;-82
2023/12/15 04:10:21;;;;;;;29.80;14.93;;;2.60;99.90;;;;;;5005122;28;20050;-81
2023/12/15 04:13:08;;;;;;;33.28;15.85;;;2.60;99.90;;;;;;4996725;28;20046;-82
2023/12/15 04:15:58;;;;;;;31.08;16.00;;;2.60;99.90;;;;;;4999799;28;20050;-79
2023/12/15 04:18:51;;;;;;;35.55;15.70;;;2.60;99.90;;;;;;5013559;28;20053;-82
2023/12/15 04:21:40;;;;;;;33.00;15.37;;;2.60;99.90;;;;;;5004611;28;20042;-82
2023/12/15 04:24:27;;;;;;;26.83;13.82;;;2.60;99.90;;;;;;5009893;28;20449;-81
2023/12/15 04:27:15;;;;;;;28.88;14.88;;;2.70;99.90;;;;;;5005726;28;20378;-81
2023/12/15 04:30:08;;;;;;;26.70;14.10;;;2.70;99.90;;;;;;5009526;28;20116;-83
2023/12/15 04:32:55;;;;;;;29.75;14.07;;;2.70;99.90;;;;;;4996230;28;20050;-82
2023/12/15 04:35:43;;;;;;;25.65;13.52;;;2.60;99.90;;;;;;5008104;28;20060;-82
2023/12/15 04:38:30;;;;;;;23.65;13.77;;;2.70;99.90;;;;;;5011432;28;20050;-82
2023/12/15 04:41:18;;;;;;;22.35;13.07;;;2.70;99.90;;;;;;5007410;28;20039;-82
2023/12/15 04:44:05;;;;;;;24.38;13.23;;;2.70;99.90;;;;;;5006006;28;20065;-82
2023/12/15 04:46:55;;;;;;;22.95;12.90;;;2.70;99.90;;;;;;5006254;28;20485;-81
2023/12/15 04:49:43;;;;;;;27.63;12.85;;;2.60;99.90;;;;;;4992382;28;20069;-84
2023/12/15 04:52:30;;;;;;;24.60;14.00;;;2.60;99.90;;;;;;5004140;28;20449;-84
2023/12/15 04:55:17;;;;;;;24.08;13.45;;;2.60;99.90;;;;;;5012656;28;20053;-82
2023/12/15 04:58:06;;;;;;;28.92;14.48;;;2.60;99.90;;;;;;5007033;28;20053;-83
2023/12/15 05:00:55;;;;;;;27.17;15.05;;;2.60;99.90;;;;;;5006723;28;20627;-82
2023/12/15 05:03:44;;;;;;;29.25;15.60;;;2.60;99.90;;;;;;5009600;28;20038;-81
2023/12/15 05:06:31;;;;;;;25.10;13.85;;;2.60;99.90;;;;;;5007150;28;20046;-82
2023/12/15 05:09:21;;;;;;;22.92;13.05;;;2.60;99.90;;;;;;5010272;28;20053;-82
2023/12/15 05:12:10;;;;;;;24.13;14.10;;;2.60;99.90;;;;;;5005957;28;20473;-82
2023/12/15 05:14:57;;;;;;;26.55;14.48;;;2.60;99.90;;;;;;5013264;28;20053;-82
2023/12/15 05:17:45;;;;;;;24.52;13.75;;;2.60;99.90;;;;;;5011615;28;20446;-85
2023/12/15 05:20:36;;;;;;;26.77;14.80;;;2.60;99.90;;;;;;4995738;28;20054;-82
2023/12/15 05:23:23;;;;;;;23.90;13.52;;;2.60;99.90;;;;;;5004444;28;20046;-82
2023/12/15 05:26:14;;;;;;;26.38;14.13;;;2.60;99.90;;;;;;5001590;28;20057;-81
2023/12/15 05:29:03;;;;;;;23.50;13.10;;;2.60;99.90;;;;;;5009886;28;20037;-83
2023/12/15 05:31:51;;;;;;;22.77;14.23;;;2.70;99.90;;;;;;5004229;28;20051;-83
2023/12/15 05:34:38;;;;;;;25.02;14.52;;;2.70;99.90;;;;;;5015301;28;20053;-81
2023/12/15 05:37:25;;;;;;;23.17;14.02;;;2.70;99.90;;;;;;5005534;28;20041;-79
2023/12/15 05:40:12;;;;;;;23.95;14.98;;;2.70;99.90;;;;;;5003628;28;20053;-80
2023/12/15 05:43:04;;;;;;;22.05;13.18;;;2.70;99.90;;;;;;4992504;28;20042;-81
2023/12/15 05:45:51;;;;;;;24.75;13.82;;;2.70;99.90;;;;;;5002596;28;20046;-81
2023/12/15 05:48:39;;;;;;;21.58;13.63;;;2.70;99.90;;;;;;5005724;28;20056;-78
2023/12/15 05:51:26;;;;;;;21.85;12.85;;;2.70;99.90;;;;;;5010006;28;20048;-82
2023/12/15 05:54:13;;;;;;;22.42;12.05;;;2.70;99.90;;;;;;4990820;28;20226;-80
2023/12/15 05:57:00;;;;;;;20.60;11.90;;;2.60;99.90;;;;;;5007959;28;20042;-81
2023/12/15 05:59:48;;;;;;;19.77;11.88;;;2.70;99.90;;;;;;4998255;28;20427;-80
2023/12/15 06:02:35;;;;;;;17.55;11.43;;;2.70;99.90;;;;;;5009301;28;20038;-80
2023/12/15 06:05:22;;;;;;;19.58;11.40;;;2.70;99.90;;;;;;5010975;28;20060;-81
2023/12/15 06:08:11;;;;;;;18.77;11.45;;;2.70;99.90;;;;;;5009735;28;20148;-83
2023/12/15 06:10:58;;;;;;;21.15;12.82;;;2.70;99.90;;;;;;5008624;28;20043;-84
2023/12/15 06:13:46;;;;;;;18.33;12.25;;;2.70;99.90;;;;;;5017131;28;20061;-82
2023/12/15 06:16:33;;;;;;;19.00;12.35;;;2.70;99.90;;;;;;4993428;28;20045;-82
2023/12/15 06:19:21;;;;;;;20.60;12.15;;;2.70;99.90;;;;;;5007053;28;20041;-83
2023/12/15 06:22:08;;;;;;;22.38;13.82;;;2.70;99.90;;;;;;4995832;28;20050;-83
2023/12/15 06:24:55;;;;;;;23.30;13.18;;;2.70;99.90;;;;;;4992534;28;20064;-81
2023/12/15 06:27:43;;;;;;;21.90;13.43;;;2.70;99.90;;;;;;4995063;28;20686;-82
2023/12/15 06:30:32;;;;;;;20.23;12.65;;;2.70;99.90;;;;;;5001369;28;20046;-83
2023/12/15 06:33:20;;;;;;;21.23;13.13;;;2.70;99.90;;;;;;4997990;28;20472;-80
2023/12/15 06:36:08;;;;;;;20.40;12.60;;;2.70;99.90;;;;;;4995044;28;20358;-83
2023/12/15 06:38:55;;;;;;;23.52;12.52;;;2.70;99.90;;;;;;5006575;28;20049;-82
2023/12/15 06:41:46;;;;;;;19.58;13.07;;;2.70;99.90;;;;;;5006437;28;20121;-82
2023/12/15 06:44:38;;;;;;;22.90;13.55;;;2.70;99.90;;;;;;5007189;28;20049;-79
2023/12/15 06:47:26;;;;;;;20.95;12.77;;;2.70;99.90;;;;;;5002158;28;20046;-80
2023/12/15 06:50:15;;;;;;;23.73;13.18;;;2.70;99.90;;;;;;4991519;28;20058;-83
2023/12/15 06:53:11;;;;;;;21.40;13.90;;;2.70;99.90;;;;;;5002350;28;20137;-80
2023/12/15 06:55:59;;;;;;;26.05;14.18;;;2.70;99.90;;;;;;4995752;28;20459;-82
2023/12/15 06:58:46;;;;;;;26.38;15.30;;;2.70;99.90;;;;;;5009085;28;20045;-82
2023/12/15 07:01:33;;;;;;;27.33;15.57;;;2.80;99.90;;;;;;4996082;28;20042;-83
2023/12/15 07:04:21;;;;;;;28.25;16.00;;;2.70;99.90;;;;;;5011556;28;20046;-82
2023/12/15 07:07:08;;;;;;;24.85;14.77;;;2.80;99.90;;;;;;5007484;28;20049;-82
2023/12/15 07:09:55;;;;;;;28.10;16.40;;;2.80;99.90;;;;;;4994172;28;20049;-80
2023/12/15 07:12:43;;;;;;;27.08;15.82;;;2.80;99.90;;;;;;5010792;28;20065;-80
2023/12/15 07:15:30;;;;;;;28.67;17.73;;;2.80;99.90;;;;;;5012848;28;20038;-81
2023/12/15 07:18:18;;;;;;;29.90;16.58;;;2.80;99.90;;;;;;5003291;28;20042;-80
2023/12/15 07:21:05;;;;;;;27.77;17.17;;;2.80;99.90;;;;;;5009721;28;20053;-80
2023/12/15 07:23:55;;;;;;;28.92;16.10;;;2.80;99.90;;;;;;5014391;28;20052;-78
2023/12/15 07:26:42;;;;;;;31.27;16.02;;;2.80;99.90;;;;;;5009600;28;20113;-79
2023/12/15 07:29:30;;;;;;;34.67;18.50;;;2.80;99.90;;;;;;5006363;28;20038;-80
2023/12/15 07:32:17;;;;;;;34.42;18.83;;;2.80;99.90;;;;;;5006682;28;20315;-81
2023/12/15 07:35:05;;;;;;;32.40;17.90;;;2.80;99.90;;;;;;5008915;28;20128;-82
2023/12/15 07:38:11;;;;;;;34.50;19.85;;;2.90;99.90;;;;;;4992849;28;20053;-79
2023/12/15 07:40:58;;;;;;;36.17;20.10;;;2.90;99.90;;;;;;5009131;28;20434;-79
2023/12/15 07:43:45;;;;;;;39.03;20.52;;;2.90;99.90;;;;;;4992048;28;20046;-80
2023/12/15 07:46:33;;;;;;;37.92;20.35;;;2.90;99.90;;;;;;4998720;28;20056;-83
2023/12/15 07:49:21;;;;;;;39.25;21.65;;;3.00;99.90;;;;;;5008728;28;20050;-79
2023/12/15 07:52:08;;;;;;;39.00;21.23;;;3.00;99.90;;;;;;5004420;28;20122;-78
2023/12/15 07:54:57;;;;;;;34.95;20.75;;;3.00;99.90;;;;;;5009129;28;20049;-80
2023/12/15 07:57:44;;;;;;;39.00;21.13;;;3.10;99.90;;;;;;5009027;28;20133;-82
2023/12/15 08:00:31;;;;;;;38.60;22.10;;;3.10;99.90;;;;;;5003575;28;20065;-81
2023/12/15 08:03:19;;;;;;;43.25;22.77;;;3.10;99.90;;;;;;5009726;28;20077;-80
2023/12/15 08:06:09;;;;;;;38.05;22.25;;;3.10;99.90;;;;;;5007376;28;20042;-81
2023/12/15 08:08:57;;;;;;;44.63;23.30;;;3.20;99.90;;;;;;4995372;28;20054;-79
2023/12/15 08:11:44;;;;;;;46.25;24.17;;;3.20;99.90;;;;;;5008505;28;20144;-78
2023/12/15 08:14:34;;;;;;;46.22;23.17;;;3.20;99.90;;;;;;4996955;28;20046;-81
2023/12/15 08:17:21;;;;;;;45.45;23.35;;;3.30;99.90;;;;;;5012522;28;20125;-79
2023/12/15 08:20:09;;;;;;;44.33;24.05;;;3.30;99.90;;;;;;5005849;28;20042;-79
2023/12/15 08:22:57;;;;;;;40.35;22.42;;;3.30;99.90;;;;;;5004116;28;20053;-78
2023/12/15 08:25:44;;;;;;;42.45;23.42;;;3.30;99.90;;;;;;5000588;28;20367;-79
2023/12/15 08:28:31;;;;;;;56.40;26.00;;;3.30;99.90;;;;;;5007106;28;20490;-78
2023/12/15 08:31:19;;;;;;;42.80;23.70;;;3.30;99.90;;;;;;4992923;28;20068;-79
2023/12/15 08:34:11;;;;;;;58.90;24.80;;;3.30;99.90;;;;;;5005938;28;20156;-77
2023/12/15 08:37:01;;;;;;;45.45;25.30;;;3.30;99.90;;;;;;5008041;28;20050;-79
2023/12/15 08:39:49;;;;;;;40.72;23.10;;;3.40;99.90;;;;;;5006064;28;20081;-80
2023/12/15 08:42:36;;;;;;;45.53;25.50;;;3.40;99.90;;;;;;5013849;28;20369;-79
2023/12/15 08:45:23;;;;;;;43.85;22.45;;;3.50;99.90;;;;;;4996664;28;20049;-78
2023/12/15 08:48:11;;;;;;;46.67;25.35;;;3.50;99.90;;;;;;5008917;28;20463;-78
2023/12/15 08:50:59;;;;;;;77.03;38.92;;;3.50;99.90;;;;;;5007885;28;20061;-80
2023/12/15 08:56:31;;;;;;;42.67;24.13;;;3.60;99.90;;;;;;5946913;23;20049;-81
2023/12/15 08:59:21;;;;;;;45.40;25.10;;;3.50;99.90;;;;;;5017845;28;20058;-80
2023/12/15 09:02:12;;;;;;;50.38;25.23;;;3.50;99.90;;;;;;4999022;28;20136;-79
2023/12/15 09:05:00;;;;;;;49.55;25.52;;;3.50;99.90;;;;;;4987440;28;20038;-83
2023/12/15 09:07:58;;;;;;;48.17;24.52;;;3.60;99.90;;;;;;4980205;28;20134;-80
2023/12/15 09:10:54;;;;;;;48.92;26.33;;;3.70;99.90;;;;;;4980926;28;20122;-79
2023/12/15 09:13:41;;;;;;;47.53;24.88;;;3.80;99.90;;;;;;4987577;28;20119;-79
2023/12/15 09:16:31;;;;;;;47.95;25.30;;;3.80;99.90;;;;;;4982536;28;20046;-79
2023/12/15 09:19:19;;;;;;;53.13;26.50;;;3.90;99.90;;;;;;4981968;28;20086;-80
2023/12/15 09:22:07;;;;;;;49.67;26.98;;;4.00;99.90;;;;;;4988100;28;20047;-81
2023/12/15 09:24:54;;;;;;;45.78;25.75;;;4.00;99.90;;;;;;4990171;28;20061;-81
2023/12/15 09:27:43;;;;;;;48.30;25.98;;;4.00;99.90;;;;;;4987411;28;20046;-79
2023/12/15 09:30:33;;;;;;;46.60;24.75;;;4.00;99.90;;;;;;4984431;28;20062;-80
2023/12/15 09:33:21;;;;;;;46.55;24.98;;;4.10;99.90;;;;;;4990350;28;20133;-80
2023/12/15 09:36:08;;;;;;;46.10;23.65;;;4.00;99.90;;;;;;4986078;28;20184;-80
2023/12/15 09:39:00;;;;;;;52.88;28.35;;;4.10;99.90;;;;;;4986274;28;20054;-80
2023/12/15 09:41:49;;;;;;;43.63;22.00;;;4.10;99.90;;;;;;4985699;28;20379;-80
2023/12/15 09:44:37;;;;;;;43.60;23.58;;;4.20;99.90;;;;;;4978369;28;20039;-79
2023/12/15 09:47:46;;;;;;;42.25;22.70;;;4.20;99.90;;;;;;4983155;28;20050;-78
2023/12/15 09:50:39;;;;;;;38.97;21.75;;;4.30;99.90;;;;;;4989501;28;20133;-78
2023/12/15 09:53:36;;;;;;;43.67;22.92;;;4.30;99.90;;;;;;4984582;28;20386;-79
2023/12/15 09:56:24;;;;;;;34.55;21.02;;;4.40;99.90;;;;;;4990875;28;20061;-79
2023/12/15 09:59:11;;;;;;;36.05;21.23;;;4.50;99.90;;;;;;4985979;28;20049;-81
2023/12/15 10:01:59;;;;;;;35.97;20.48;;;4.60;99.90;;;;;;4995883;28;20134;-80
2023/12/15 10:04:48;;;;;;;33.05;19.98;;;4.80;99.90;;;;;;5014436;28;20113;-78
2023/12/15 10:07:36;;;;;;;28.33;18.08;;;5.00;99.90;;;;;;5030316;28;20107;-81
2023/12/15 10:10:27;;;;;;;27.98;18.38;;;5.10;99.90;;;;;;5030320;28;20068;-79
2023/12/15 10:13:15;;;;;;;23.25;14.38;;;5.30;99.90;;;;;;5014524;28;20495;-78
2023/12/15 10:16:03;;;;;;;26.27;16.55;;;5.40;99.90;;;;;;5034885;28;20049;-77
2023/12/15 10:18:50;;;;;;;25.73;14.95;;;5.40;99.90;;;;;;5028506;28;20033;-81
2023/12/15 10:21:38;;;;;;;22.92;15.10;;;5.40;99.90;;;;;;5022399;28;20634;-79
2023/12/15 10:24:25;;;;;;;29.20;17.48;;;5.30;99.90;;;;;;5021756;28;20038;-77
2023/12/15 10:27:13;;;;;;;27.95;15.40;;;5.40;99.90;;;;;;5032887;28;20516;-80
2023/12/15 10:30:01;;;;;;;24.45;14.07;;;5.50;99.90;;;;;;5035559;28;20059;-78
2023/12/15 10:32:48;;;;;;;21.48;13.45;;;5.30;99.90;;;;;;5023614;28;20445;-80
2023/12/15 10:35:39;;;;;;;27.25;14.15;;;5.30;99.90;;;;;;5025911;28;20053;-83
2023/12/15 10:38:30;;;;;;;22.35;14.13;;;5.30;99.90;;;;;;5022691;28;20038;-81
2023/12/15 10:41:20;;;;;;;21.23;14.10;;;5.40;99.90;;;;;;5015001;28;20086;-81
2023/12/15 10:44:08;;;;;;;23.42;14.07;;;5.50;99.90;;;;;;5007680;28;20081;-80
2023/12/15 10:46:58;;;;;;;18.80;13.50;;;5.50;99.90;;;;;;5021474;28;20054;-80
2023/12/15 10:49:53;;;;;;;23.65;14.68;;;5.50;99.90;;;;;;5019267;28;20050;-80
2023/12/15 10:52:44;;;;;;;23.77;13.48;;;5.40;99.90;;;;;;5014218;28;20594;-79
2023/12/15 10:55:34;;;;;;;25.75;14.63;;;5.30;99.90;;;;;;5027835;28;20753;-80
2023/12/15 10:58:22;;;;;;;19.90;13.75;;;5.30;99.90;;;;;;5017535;28;20049;-80
2023/12/15 11:01:10;;;;;;;24.33;14.68;;;5.30;99.90;;;;;;5009426;28;20034;-79
2023/12/15 11:04:00;;;;;;;21.90;14.25;;;5.20;99.90;;;;;;4990022;28;20062;-79
2023/12/15 11:06:53;;;;;;;28.95;17.20;;;5.10;99.90;;;;;;5003963;28;20052;-80
2023/12/15 11:09:49;;;;;;;21.92;13.85;;;5.20;99.90;;;;;;5003724;28;20061;-80
2023/12/15 11:12:41;;;;;;;24.27;15.02;;;5.20;99.90;;;;;;5005786;28;20192;-80
2023/12/15 11:15:30;;;;;;;20.63;14.55;;;5.30;99.90;;;;;;5005343;28;20049;-81
2023/12/15 11:18:24;;;;;;;19.67;13.27;;;5.30;99.90;;;;;;5008835;28;20176;-80
2023/12/15 11:21:11;;;;;;;24.17;14.30;;;5.40;99.90;;;;;;5016962;28;20053;-80
2023/12/15 11:24:00;;;;;;;23.45;13.38;;;5.70;99.90;;;;;;4994094;28;20042;-80
2023/12/15 11:26:49;;;;;;;18.52;12.07;;;5.90;99.90;;;;;;5007127;28;21198;-82
2023/12/15 11:29:40;;;;;;;13.85;9.98;;;6.20;99.90;;;;;;5002728;28;20037;-81
2023/12/15 11:32:37;;;;;;;15.27;9.93;;;6.30;99.90;;;;;;4991680;28;20046;-81
2023/12/15 11:35:31;;;;;;;14.95;8.90;;;6.50;99.90;;;;;;5004122;28;20473;-78
2023/12/15 11:38:21;;;;;;;15.32;9.00;;;6.60;34.10;;;;;;5004391;28;20065;-78
2023/12/15 11:41:11;;;;;;;13.07;8.32;;;6.50;1.00;;;;;;4993390;28;20074;-79
2023/12/15 11:44:00;;;;;;;13.80;8.57;;;6.40;99.90;;;;;;5013415;28;20037;-80
2023/12/15 11:46:48;;;;;;;12.80;8.00;;;6.50;99.90;;;;;;5015526;28;20034;-78
2023/12/15 11:49:42;;;;;;;13.52;8.68;;;6.50;1.00;;;;;;5014260;28;20057;-78
2023/12/15 11:52:30;;;;;;;12.80;8.27;;;6.40;1.00;;;;;;5011539;28;20049;-79
2023/12/15 11:55:17;;;;;;;11.55;7.43;;;6.40;99.90;;;;;;5003513;28;20042;-79
2023/12/15 11:58:06;;;;;;;10.52;7.82;;;6.50;91.80;;;;;;5007256;28;20038;-79
2023/12/15 12:00:53;;;;;;;10.65;8.27;;;6.60;1.00;;;;;;5014712;28;20064;-81
2023/12/15 12:03:43;;;;;;;12.52;8.18;;;6.50;99.90;;;;;;5010788;28;20445;-80
2023/12/15 12:06:32;;;;;;;12.45;8.38;;;6.40;99.90;;;;;;5009634;28;20045;-80
2023/12/15 12:09:19;;;;;;;13.23;8.18;;;6.30;79.70;;;;;;4999155;28;20073;-79
2023/12/15 12:12:07;;;;;;;11.85;8.05;;;6.10;1.00;;;;;;5010893;28;20386;-80
2023/12/15 12:14:57;;;;;;;10.55;7.53;;;6.10;1.00;;;;;;4993341;28;20057;-81
2023/12/15 12:17:46;;;;;;;11.73;7.97;;;6.00;99.90;;;;;;5008604;28;20042;-81
2023/12/15 12:20:35;;;;;;;11.93;7.38;;;6.90;99.90;;;;;;5011044;28;20048;-80
2023/12/15 12:23:28;;;;;;;9.95;5.88;;;8.20;31.00;;;;;;5014995;28;20121;-79
2023/12/15 12:26:29;;;;;;;6.85;4.97;;;9.10;99.90;;;;;;5014856;28;20053;-81
2023/12/15 12:29:18;;;;;;;7.05;5.15;;;9.30;99.90;;;;;;5022553;28;20049;-81
2023/12/15 12:32:06;;;;;;;7.47;4.22;;;8.80;99.90;;;;;;5010989;28;20057;-81
2023/12/15 12:34:54;;;;;;;12.43;4.88;;;8.40;99.90;;;;;;5024202;28;20057;-81
2023/12/15 12:37:41;;;;;;;5.50;3.83;;;8.60;99.90;;;;;;5005753;28;20058;-81
2023/12/15 12:40:29;;;;;;;4.72;3.20;;;9.10;99.90;;;;;;5006864;28;20046;-81
2023/12/15 12:43:17;;;;;;;3.80;2.70;;;9.00;99.90;;;;;;5003023;28;20434;-81
2023/12/15 12:46:04;;;;;;;5.20;3.33;;;8.30;99.90;;;;;;5015796;28;20038;-81
2023/12/15 12:48:54;;;;;;;3.70;2.95;;;7.50;99.90;;;;;;5018442;28;20439;-79
2023/12/15 12:51:41;;;;;;;4.68;3.42;;;7.00;99.90;;;;;;5004670;28;20034;-78
2023/12/15 12:54:38;;;;;;;5.72;4.15;;;6.80;99.90;;;;;;5034610;28;20042;-81
2023/12/15 12:57:28;;;;;;;6.03;4.10;;;6.60;1.00;;;;;;5039062;28;20050;-79
2023/12/15 13:00:18;;;;;;;6.55;4.25;;;6.40;1.00;;;;;;5025581;28;20054;-80
2023/12/15 13:03:06;;;;;;;6.32;4.00;;;6.30;99.90;;;;;;5007583;28;20081;-77
2023/12/15 13:05:55;;;;;;;6.28;4.60;;;6.30;99.90;;;;;;5030473;28;20049;-78
2023/12/15 13:08:43;;;;;;;9.00;5.30;;;6.20;99.90;;;;;;5012138;28;20588;-80
2023/12/15 13:11:32;;;;;;;4.65;3.88;;;6.30;1.00;;;;;;5018162;28;20060;-79
2023/12/15 13:14:21;;;;;;;7.10;4.05;;;6.40;99.90;;;;;;5019471;28;20041;-79
2023/12/15 13:17:12;;;;;;;9.88;3.97;;;6.30;99.90;;;;;;5026670;28;20054;-78
2023/12/15 13:19:59;;;;;;;5.28;3.42;;;6.30;99.90;;;;;;5015415;28;20046;-80
2023/12/15 13:22:47;;;;;;;8.25;4.40;;;6.20;1.00;;;;;;5019929;28;20067;-79
2023/12/15 13:25:35;;;;;;;6.13;4.18;;;6.20;99.90;;;;;;5016448;28;20061;-79
2023/12/15 13:28:26;;;;;;;8.98;4.65;;;6.30;99.90;;;;;;5025153;28;20344;-79
2023/12/15 13:31:13;;;;;;;8.02;5.43;;;6.40;99.90;;;;;;5020981;28;20074;-79
2023/12/15 13:34:01;;;;;;;4.68;3.17;;;6.30;1.00;;;;;;5010923;28;20132;-80
2023/12/15 13:36:51;;;;;;;4.18;2.97;;;6.20;1.00;;;;;;5023160;28;20046;-80
2023/12/15 13:39:40;;;;;;;6.57;3.03;;;6.20;1.00;;;;;;5017562;28;20073;-80
2023/12/15 13:42:27;;;;;;;4.18;3.33;;;6.00;1.00;;;;;;5023291;28;20042;-79
2023/12/15 13:45:14;;;;;;;3.67;3.00;;;6.00;99.90;;;;;;5018828;28;20049;-80
2023/12/15 13:48:02;;;;;;;7.05;3.67;;;6.00;99.90;;;;;;5028883;28;20052;-79
2023/12/15 13:50:49;;;;;;;5.68;2.97;;;5.90;99.90;;;;;;5004801;28;20125;-79
2023/12/15 13:53:43;;;;;;;3.80;3.03;;;5.80;99.90;;;;;;5011759;28;20443;-79
2023/12/15 13:56:30;;;;;;;4.78;3.22;;;5.80;99.90;;;;;;5005736;28;20050;-79
2023/12/15 13:59:19;;;;;;;4.63;3.38;;;5.80;1.00;;;;;;5003574;28;20056;-79
2023/12/15 14:02:06;;;;;;;6.20;3.88;;;5.80;10.70;;;;;;5018158;28;20050;-80
2023/12/15 14:04:54;;;;;;;4.25;3.05;;;5.90;99.90;;;;;;5016797;28;20124;-80
2023/12/15 14:07:44;;;;;;;2.92;2.47;;;5.80;95.90;;;;;;5015577;28;20052;-79
2023/12/15 14:10:34;;;;;;;5.40;3.00;;;5.80;1.00;;;;;;5023567;28;20046;-80
2023/12/15 14:13:21;;;;;;;3.72;3.15;;;5.80;1.00;;;;;;5010898;28;20325;-79
2023/12/15 14:16:09;;;;;;;8.10;4.30;;;5.70;99.90;;;;;;5000413;28;20077;-80
2023/12/15 14:18:59;;;;;;;7.70;4.80;;;5.80;1.00;;;;;;5011770;28;20042;-80
2023/12/15 14:21:47;;;;;;;7.70;3.75;;;5.70;81.20;;;;;;5001166;28;20087;-80
2023/12/15 14:24:36;;;;;;;5.82;3.70;;;5.70;25.20;;;;;;5010225;28;20042;-80
2023/12/15 14:27:26;;;;;;;5.78;3.47;;;5.70;67.50;;;;;;5009870;28;20459;-79
2023/12/15 14:30:14;;;;;;;7.93;4.28;;;5.60;99.90;;;;;;5009514;28;20396;-79
2023/12/15 14:33:01;;;;;;;5.85;3.20;;;5.60;43.50;;;;;;5005048;28;20057;-80